Time;durP1;ratioP1;P1;durP2;ratioP2;P2;SDS_P1;SDS_P2;PMS_P1;PMS_P2;Temp;Humidity;BMP_temperature;BMP_pressure;BME280_temperature;BME280_humidity;BME280_pressure;Samples;Min_cycle;Max_cycle;Signal;HPM_P1;HPM_P2
2020/12/24 00:01:29;;;;;;;0.30;0.10;;;10.80;99.90;;;;;;5115377;28;20416;-61
2020/12/24 00:03:57;;;;;;;0.40;0.20;;;10.80;99.90;;;;;;5114489;28;20432;-60
2020/12/24 00:06:23;;;;;;;0.40;0.10;;;10.80;99.90;;;;;;5115720;28;20412;-60
2020/12/24 00:08:50;;;;;;;0.30;0.10;;;11.00;99.90;;;;;;5116787;28;20835;-61
2020/12/24 00:11:17;;;;;;;0.30;0.10;;;11.20;99.90;;;;;;5116694;28;20420;-62
2020/12/24 00:13:44;;;;;;;0.30;0.10;;;11.20;99.90;;;;;;5116827;28;20831;-61
2020/12/24 00:16:11;;;;;;;0.30;0.10;;;11.20;99.90;;;;;;5116657;28;20427;-60
2020/12/24 00:18:39;;;;;;;0.30;0.10;;;11.30;99.90;;;;;;5116807;28;20769;-61
2020/12/24 00:21:09;;;;;;;1.10;0.10;;;11.30;99.90;;;;;;5114451;28;20699;-60
2020/12/24 00:23:36;;;;;;;0.30;0.10;;;11.30;99.90;;;;;;5114452;28;20866;-60
2020/12/24 00:26:04;;;;;;;0.30;0.10;;;11.20;99.90;;;;;;5114157;28;20416;-60
2020/12/24 00:28:32;;;;;;;0.30;0.10;;;11.10;99.90;;;;;;5113976;28;20432;-60
2020/12/24 00:30:58;;;;;;;0.30;0.10;;;11.10;99.90;;;;;;5114786;28;20426;-60
2020/12/24 00:33:26;;;;;;;0.30;0.10;;;11.10;99.90;;;;;;5115696;28;20432;-61
2020/12/24 00:35:54;;;;;;;0.30;0.10;;;11.20;99.90;;;;;;5113679;28;20436;-61
2020/12/24 00:38:20;;;;;;;0.30;0.10;;;11.20;99.90;;;;;;5113350;28;20431;-61
2020/12/24 00:40:47;;;;;;;0.30;0.10;;;11.20;99.90;;;;;;5112468;28;20420;-61
2020/12/24 00:43:15;;;;;;;0.30;0.10;;;11.20;99.90;;;;;;5112486;28;20431;-61
2020/12/24 00:45:41;;;;;;;0.30;0.10;;;11.20;99.90;;;;;;5112750;28;20412;-61
2020/12/24 00:48:08;;;;;;;0.77;0.10;;;11.30;99.90;;;;;;5112545;28;20423;-62
2020/12/24 00:50:35;;;;;;;0.30;0.10;;;11.10;99.90;;;;;;5112285;28;20442;-62
2020/12/24 00:53:03;;;;;;;0.40;0.10;;;11.10;99.90;;;;;;5113619;28;20662;-62
2020/12/24 00:55:30;;;;;;;0.40;0.20;;;11.10;99.90;;;;;;5113817;28;20416;-62
2020/12/24 00:57:57;;;;;;;0.40;0.10;;;10.90;99.90;;;;;;5112722;28;20424;-62
2020/12/24 01:00:23;;;;;;;0.40;0.10;;;11.00;99.90;;;;;;5113807;28;20427;-62
2020/12/24 01:02:50;;;;;;;0.30;0.10;;;11.00;99.90;;;;;;5114169;28;20530;-62
2020/12/24 01:05:17;;;;;;;0.30;0.10;;;11.00;99.90;;;;;;5113741;28;20416;-62
2020/12/24 01:07:45;;;;;;;0.30;0.10;;;10.90;99.90;;;;;;5113896;28;20491;-62
2020/12/24 01:10:13;;;;;;;0.40;0.10;;;10.90;99.90;;;;;;5113653;28;20420;-62
2020/12/24 01:12:40;;;;;;;0.30;0.10;;;10.70;99.90;;;;;;5112605;28;20416;-62
2020/12/24 01:15:08;;;;;;;0.30;0.10;;;10.50;99.90;;;;;;5112424;28;20428;-62
2020/12/24 01:17:35;;;;;;;0.50;0.20;;;10.40;99.90;;;;;;5112593;28;20437;-61
2020/12/24 01:20:02;;;;;;;0.50;0.20;;;10.40;99.90;;;;;;5112476;28;20424;-62
2020/12/24 01:22:29;;;;;;;0.40;0.10;;;10.40;99.90;;;;;;5113783;28;20827;-62
2020/12/24 01:24:56;;;;;;;0.43;0.10;;;10.20;99.90;;;;;;5114496;28;20822;-61
2020/12/24 01:27:24;;;;;;;0.30;0.10;;;10.10;99.90;;;;;;5114720;28;20424;-62
2020/12/24 01:29:51;;;;;;;0.30;0.10;;;10.00;99.90;;;;;;5115335;28;20420;-63
2020/12/24 01:32:18;;;;;;;0.30;0.10;;;10.10;99.90;;;;;;5115457;28;20416;-61
2020/12/24 01:34:45;;;;;;;0.30;0.10;;;9.90;99.90;;;;;;5115256;28;20454;-61
2020/12/24 01:37:15;;;;;;;0.30;0.10;;;9.90;99.90;;;;;;5114344;28;20740;-61
2020/12/24 01:39:42;;;;;;;0.30;0.10;;;10.10;99.90;;;;;;5112084;28;20428;-61
2020/12/24 01:42:09;;;;;;;0.30;0.10;;;10.10;99.90;;;;;;5111603;28;20424;-61
2020/12/24 01:44:37;;;;;;;1.00;0.10;;;10.10;99.90;;;;;;5111767;28;20478;-61
2020/12/24 01:47:04;;;;;;;0.30;0.10;;;10.00;99.90;;;;;;5112300;28;20480;-61
2020/12/24 01:49:32;;;;;;;0.80;0.10;;;10.00;99.90;;;;;;5112783;28;20995;-61
2020/12/24 01:51:59;;;;;;;1.00;0.10;;;9.90;99.90;;;;;;5112947;28;20427;-61
2020/12/24 01:54:27;;;;;;;0.30;0.10;;;9.90;99.90;;;;;;5113707;28;20431;-61
2020/12/24 01:56:55;;;;;;;0.38;0.10;;;9.80;99.90;;;;;;5113447;28;20428;-61
2020/12/24 01:59:22;;;;;;;0.70;0.10;;;9.90;99.90;;;;;;5113927;28;20428;-61
2020/12/24 02:01:51;;;;;;;0.80;0.10;;;9.90;99.90;;;;;;5114443;28;20420;-60
2020/12/24 02:04:18;;;;;;;0.30;0.10;;;9.90;99.90;;;;;;5114578;28;20424;-61
2020/12/24 02:06:49;;;;;;;0.63;0.10;;;10.00;99.90;;;;;;5114824;28;20622;-61
2020/12/24 02:09:16;;;;;;;0.30;0.10;;;9.90;99.90;;;;;;5115224;28;20416;-61
2020/12/24 02:11:44;;;;;;;0.30;0.10;;;10.00;99.90;;;;;;5115321;28;20839;-61
2020/12/24 02:14:11;;;;;;;0.30;0.10;;;10.00;99.90;;;;;;5113839;28;20439;-61
2020/12/24 02:16:38;;;;;;;0.63;0.10;;;10.00;99.90;;;;;;5114061;28;20545;-61
2020/12/24 02:19:06;;;;;;;0.40;0.10;;;10.00;99.90;;;;;;5114478;28;20782;-61
2020/12/24 02:21:35;;;;;;;0.30;0.10;;;10.10;99.90;;;;;;5114167;28;20420;-61
2020/12/24 02:24:02;;;;;;;1.20;0.10;;;10.20;99.90;;;;;;5113302;28;20428;-60
2020/12/24 02:26:30;;;;;;;0.30;0.10;;;10.10;99.90;;;;;;5117457;28;20896;-60
2020/12/24 02:28:58;;;;;;;0.50;0.10;;;10.10;99.90;;;;;;5118403;28;20431;-60
2020/12/24 02:31:25;;;;;;;0.30;0.10;;;10.10;99.90;;;;;;5118918;28;20757;-60
2020/12/24 02:33:52;;;;;;;0.40;0.10;;;10.20;99.90;;;;;;5118431;28;20427;-59
2020/12/24 02:36:19;;;;;;;0.40;0.10;;;10.20;99.90;;;;;;5118001;28;20424;-60
2020/12/24 02:38:47;;;;;;;0.30;0.10;;;10.20;99.90;;;;;;5118650;28;20431;-60
2020/12/24 02:41:14;;;;;;;0.35;0.10;;;10.20;99.90;;;;;;5117743;28;20420;-59
2020/12/24 02:43:45;;;;;;;1.00;0.10;;;10.10;99.90;;;;;;5118404;28;20637;-59
2020/12/24 02:46:12;;;;;;;0.30;0.10;;;10.00;99.90;;;;;;5117576;28;20416;-59
2020/12/24 02:48:39;;;;;;;0.30;0.10;;;10.10;99.90;;;;;;5117449;28;20424;-59
2020/12/24 02:51:06;;;;;;;0.30;0.10;;;10.10;99.90;;;;;;5116368;28;20420;-59
2020/12/24 02:53:33;;;;;;;0.30;0.10;;;10.20;99.90;;;;;;5116716;28;20507;-59
2020/12/24 02:56:01;;;;;;;0.82;0.10;;;10.30;99.90;;;;;;5116950;28;20748;-59
2020/12/24 02:58:28;;;;;;;0.40;0.10;;;10.30;99.90;;;;;;5116692;28;20440;-60
2020/12/24 03:00:55;;;;;;;0.50;0.10;;;10.30;99.90;;;;;;5116865;28;20691;-60
2020/12/24 03:03:24;;;;;;;0.30;0.10;;;10.10;99.90;;;;;;5117236;28;20515;-60
2020/12/24 03:05:51;;;;;;;0.60;0.10;;;9.90;99.90;;;;;;5117781;28;20420;-59
2020/12/24 03:08:18;;;;;;;0.70;0.10;;;9.80;99.90;;;;;;5118535;28;20424;-60
2020/12/24 03:10:46;;;;;;;0.30;0.10;;;9.60;99.90;;;;;;5118572;28;20412;-59
2020/12/24 03:13:14;;;;;;;0.30;0.10;;;9.50;99.90;;;;;;5117771;28;20431;-60
2020/12/24 03:15:41;;;;;;;0.80;0.10;;;9.50;99.90;;;;;;5117700;28;20420;-59
2020/12/24 03:18:09;;;;;;;0.68;0.10;;;9.50;99.90;;;;;;5117943;28;20420;-59
2020/12/24 03:20:36;;;;;;;0.50;0.10;;;9.50;99.90;;;;;;5117059;28;20707;-60
2020/12/24 03:23:03;;;;;;;0.30;0.10;;;9.40;99.90;;;;;;5117197;28;20477;-59
2020/12/24 03:25:30;;;;;;;0.30;0.10;;;9.50;99.90;;;;;;5117607;28;20416;-59
2020/12/24 03:27:56;;;;;;;0.30;0.10;;;9.40;99.90;;;;;;5118003;28;20420;-59
2020/12/24 03:30:25;;;;;;;0.30;0.10;;;9.30;99.90;;;;;;5116481;28;20454;-58
2020/12/24 03:32:51;;;;;;;0.30;0.10;;;9.40;99.90;;;;;;5117631;28;20423;-59
2020/12/24 03:35:20;;;;;;;0.30;0.10;;;9.40;99.90;;;;;;5117980;28;20412;-59
2020/12/24 03:37:47;;;;;;;0.30;0.10;;;9.30;99.90;;;;;;5116642;28;20436;-59
2020/12/24 03:40:14;;;;;;;0.30;0.10;;;9.20;99.90;;;;;;5117411;28;20416;-59
2020/12/24 03:42:40;;;;;;;0.32;0.10;;;9.20;99.90;;;;;;5117048;28;20483;-59
2020/12/24 03:45:07;;;;;;;0.30;0.10;;;9.30;99.90;;;;;;5117461;28;20426;-60
2020/12/24 03:47:35;;;;;;;0.38;0.10;;;9.30;99.90;;;;;;5117252;28;20412;-60
2020/12/24 03:50:03;;;;;;;0.30;0.10;;;9.20;99.90;;;;;;5117675;28;20504;-60
2020/12/24 03:52:30;;;;;;;0.30;0.10;;;9.00;99.90;;;;;;5117342;28;20747;-60
2020/12/24 03:54:57;;;;;;;0.40;0.10;;;9.00;99.90;;;;;;5117836;28;20474;-60
2020/12/24 03:57:24;;;;;;;0.30;0.10;;;8.90;99.90;;;;;;5117060;28;20731;-60
2020/12/24 03:59:51;;;;;;;0.40;0.10;;;8.90;99.90;;;;;;5115917;28;20427;-59
2020/12/24 04:02:17;;;;;;;0.40;0.10;;;8.90;99.90;;;;;;5117261;28;20427;-60
2020/12/24 04:04:45;;;;;;;0.30;0.10;;;9.00;99.90;;;;;;5117021;28;20766;-60
2020/12/24 04:07:12;;;;;;;0.30;0.10;;;9.00;99.90;;;;;;5116757;28;20400;-59
2020/12/24 04:09:39;;;;;;;0.30;0.10;;;8.90;99.90;;;;;;5116797;28;20428;-60
2020/12/24 04:12:06;;;;;;;0.40;0.10;;;8.90;99.90;;;;;;5116860;28;20423;-60
2020/12/24 04:14:33;;;;;;;0.40;0.10;;;8.90;99.90;;;;;;5116848;28;20481;-60
2020/12/24 04:17:00;;;;;;;0.60;0.10;;;8.80;99.90;;;;;;5116696;28;20851;-60
2020/12/24 04:19:27;;;;;;;0.30;0.10;;;8.80;99.90;;;;;;5116760;28;20503;-60
2020/12/24 04:21:55;;;;;;;0.30;0.10;;;8.90;99.90;;;;;;5116630;28;20416;-60
2020/12/24 04:24:21;;;;;;;0.30;0.10;;;8.80;99.90;;;;;;5116769;28;20756;-58
2020/12/24 04:26:49;;;;;;;0.30;0.10;;;8.70;99.90;;;;;;5115699;28;20416;-58
2020/12/24 04:29:16;;;;;;;0.30;0.10;;;8.80;99.90;;;;;;5115449;28;20427;-58
2020/12/24 04:31:43;;;;;;;0.30;0.10;;;8.80;99.90;;;;;;5116576;28;20443;-58
2020/12/24 04:34:10;;;;;;;0.30;0.10;;;8.80;99.90;;;;;;5116444;28;20431;-58
2020/12/24 04:36:37;;;;;;;0.70;0.10;;;8.80;99.90;;;;;;5115024;28;20428;-58
2020/12/24 04:39:05;;;;;;;0.30;0.10;;;8.80;99.90;;;;;;5115511;28;20424;-59
2020/12/24 04:41:34;;;;;;;0.70;0.10;;;8.80;99.90;;;;;;5116401;28;20420;-60
2020/12/24 04:44:02;;;;;;;0.30;0.10;;;8.90;99.90;;;;;;5116135;28;20432;-59
2020/12/24 04:46:30;;;;;;;0.40;0.10;;;8.80;99.90;;;;;;5115801;28;20433;-59
2020/12/24 04:49:00;;;;;;;0.30;0.10;;;8.80;99.90;;;;;;5115045;28;20428;-57
2020/12/24 04:51:27;;;;;;;0.50;0.10;;;8.80;99.90;;;;;;5115989;28;20450;-57
2020/12/24 04:53:54;;;;;;;0.30;0.10;;;8.80;99.90;;;;;;5116100;28;20424;-58
2020/12/24 04:56:22;;;;;;;0.90;0.10;;;8.80;99.90;;;;;;5115426;28;20420;-58
2020/12/24 04:58:49;;;;;;;0.30;0.10;;;8.70;99.90;;;;;;5115798;28;20481;-58
2020/12/24 05:01:18;;;;;;;0.30;0.10;;;8.70;99.90;;;;;;5115536;28;20408;-59
2020/12/24 05:03:45;;;;;;;0.30;0.10;;;8.90;99.90;;;;;;5115214;28;20431;-59
2020/12/24 05:06:15;;;;;;;0.30;0.10;;;8.90;99.90;;;;;;5115135;28;20450;-59
2020/12/24 05:08:50;;;;;;;0.30;0.10;;;8.90;99.90;;;;;;5115577;28;20420;-59
2020/12/24 05:11:22;;;;;;;0.30;0.10;;;9.00;99.90;;;;;;5115732;28;20415;-60
2020/12/24 05:13:49;;;;;;;1.40;0.10;;;8.90;99.90;;;;;;5115866;28;20424;-59
2020/12/24 05:16:17;;;;;;;0.40;0.10;;;8.80;99.90;;;;;;5115285;28;20713;-60
2020/12/24 05:18:43;;;;;;;0.70;0.10;;;8.70;99.90;;;;;;5115786;28;20482;-58
2020/12/24 05:21:10;;;;;;;0.30;0.10;;;8.70;99.90;;;;;;5115266;28;20416;-58
2020/12/24 05:23:37;;;;;;;0.90;0.10;;;8.50;99.90;;;;;;5115588;28;20431;-58
2020/12/24 05:26:19;;;;;;;0.30;0.10;;;8.60;99.90;;;;;;5115089;28;20735;-58
2020/12/24 05:28:46;;;;;;;0.30;0.10;;;8.50;99.90;;;;;;5115459;28;20428;-58
2020/12/24 05:31:32;;;;;;;1.80;0.10;;;8.40;99.90;;;;;;5115665;28;20730;-58
2020/12/24 05:33:59;;;;;;;0.80;0.10;;;8.40;99.90;;;;;;5114867;28;20446;-58
2020/12/24 05:36:25;;;;;;;0.30;0.10;;;8.40;99.90;;;;;;5115048;28;20424;-58
2020/12/24 05:38:53;;;;;;;0.30;0.10;;;8.30;99.90;;;;;;5114457;28;20428;-57
2020/12/24 05:41:31;;;;;;;0.80;0.10;;;8.40;99.90;;;;;;5113654;28;20416;-58
2020/12/24 05:44:00;;;;;;;0.30;0.10;;;8.30;99.90;;;;;;5114237;28;20481;-58
2020/12/24 05:46:29;;;;;;;0.30;0.10;;;8.30;99.90;;;;;;5114452;28;20412;-58
2020/12/24 05:48:57;;;;;;;0.30;0.10;;;8.20;99.90;;;;;;5114985;28;20424;-58
2020/12/24 05:51:24;;;;;;;0.30;0.10;;;8.10;99.90;;;;;;5112706;28;20420;-58
2020/12/24 05:53:50;;;;;;;0.30;0.10;;;8.10;99.90;;;;;;5113805;28;20424;-58
2020/12/24 05:56:22;;;;;;;0.30;0.10;;;8.00;99.90;;;;;;5112899;28;20447;-57
2020/12/24 05:58:50;;;;;;;0.40;0.10;;;7.90;99.90;;;;;;5112833;28;20427;-57
2020/12/24 06:01:17;;;;;;;0.30;0.10;;;7.90;99.90;;;;;;5117802;28;20832;-57
2020/12/24 06:04:02;;;;;;;0.50;0.10;;;7.90;99.90;;;;;;5117493;28;20427;-58
2020/12/24 06:06:46;;;;;;;0.30;0.10;;;7.90;99.90;;;;;;5116445;28;20862;-57
2020/12/24 06:09:19;;;;;;;0.30;0.10;;;7.80;99.90;;;;;;5118836;28;20464;-58
2020/12/24 06:11:48;;;;;;;0.30;0.10;;;7.80;99.90;;;;;;5118825;28;20424;-57
2020/12/24 06:14:29;;;;;;;0.30;0.10;;;7.80;99.90;;;;;;5118898;28;20457;-58
2020/12/24 06:17:02;;;;;;;0.50;0.10;;;7.80;99.90;;;;;;5118083;28;20424;-57
2020/12/24 06:19:35;;;;;;;0.43;0.10;;;7.90;99.90;;;;;;5119009;28;20527;-58
2020/12/24 06:22:02;;;;;;;0.60;0.10;;;7.90;99.90;;;;;;5118518;28;20416;-57
2020/12/24 06:24:32;;;;;;;0.30;0.10;;;8.00;99.90;;;;;;5118753;28;20427;-57
2020/12/24 06:27:03;;;;;;;0.30;0.10;;;8.00;99.90;;;;;;5118672;28;20416;-55
2020/12/24 06:29:35;;;;;;;0.30;0.10;;;8.00;99.90;;;;;;5118960;28;20908;-54
2020/12/24 06:32:03;;;;;;;0.30;0.10;;;8.00;99.90;;;;;;5119036;28;20420;-56
2020/12/24 06:34:31;;;;;;;0.30;0.10;;;7.90;99.90;;;;;;5118720;28;20477;-56
2020/12/24 06:37:12;;;;;;;0.40;0.10;;;7.90;99.90;;;;;;5118797;28;20428;-56
2020/12/24 06:39:42;;;;;;;1.80;0.10;;;7.80;99.90;;;;;;5118617;28;20431;-53
2020/12/24 06:42:40;;;;;;;0.50;0.10;;;7.80;99.90;;;;;;5117621;28;20758;-55
2020/12/24 06:45:09;;;;;;;0.40;0.10;;;7.80;99.90;;;;;;5117909;28;20428;-55
2020/12/24 06:47:36;;;;;;;0.30;0.10;;;7.80;99.90;;;;;;5117517;28;20423;-55
2020/12/24 06:50:34;;;;;;;0.52;0.10;;;7.80;99.90;;;;;;5117798;28;20896;-55
2020/12/24 06:53:27;;;;;;;0.80;0.10;;;7.70;99.90;;;;;;5117063;28;20423;-55
2020/12/24 06:56:20;;;;;;;0.63;0.10;;;7.70;99.90;;;;;;5115074;28;21007;-55
2020/12/24 06:58:48;;;;;;;0.40;0.10;;;7.70;99.90;;;;;;5107371;28;20428;-55
2020/12/24 07:01:16;;;;;;;0.30;0.10;;;7.80;99.90;;;;;;5117276;28;20435;-52
2020/12/24 07:03:44;;;;;;;0.40;0.10;;;7.80;99.90;;;;;;5115264;28;20420;-52
2020/12/24 07:06:11;;;;;;;1.10;0.10;;;7.80;99.90;;;;;;5117513;28;21013;-54
2020/12/24 07:08:46;;;;;;;0.50;0.20;;;7.80;99.90;;;;;;5117626;28;20423;-55
2020/12/24 07:11:40;;;;;;;0.85;0.20;;;7.80;99.90;;;;;;5115731;28;20455;-55
2020/12/24 07:14:21;;;;;;;0.40;0.10;;;7.80;99.90;;;;;;5116121;28;20508;-54
2020/12/24 07:16:48;;;;;;;0.60;0.20;;;7.80;99.90;;;;;;5113555;28;20428;-56
2020/12/24 07:19:17;;;;;;;0.40;0.10;;;7.80;99.90;;;;;;5114382;28;20424;-56
2020/12/24 07:21:48;;;;;;;0.32;0.10;;;7.80;99.90;;;;;;5114774;28;20423;-57
2020/12/24 07:24:16;;;;;;;0.70;0.20;;;7.90;99.90;;;;;;5110238;28;20432;-56
2020/12/24 07:26:44;;;;;;;1.60;0.20;;;8.00;99.90;;;;;;5113774;28;20412;-57
2020/12/24 07:29:20;;;;;;;0.80;0.20;;;8.10;99.90;;;;;;5115617;28;20423;-56
2020/12/24 07:31:47;;;;;;;0.40;0.10;;;8.10;99.90;;;;;;5116684;28;20905;-57
2020/12/24 07:34:14;;;;;;;0.40;0.10;;;8.20;99.90;;;;;;5115186;28;20488;-57
2020/12/24 07:36:46;;;;;;;0.80;0.20;;;8.20;99.90;;;;;;5115949;28;20428;-57
2020/12/24 07:39:12;;;;;;;1.25;0.20;;;8.20;99.90;;;;;;5116726;28;20424;-56
2020/12/24 07:41:41;;;;;;;0.40;0.10;;;8.20;99.90;;;;;;5115952;28;20420;-58
2020/12/24 07:44:11;;;;;;;0.80;0.10;;;8.30;99.90;;;;;;5116594;28;20436;-58
2020/12/24 07:46:38;;;;;;;0.40;0.10;;;8.30;99.90;;;;;;5116898;28;20416;-60
2020/12/24 07:49:06;;;;;;;0.50;0.20;;;8.20;99.90;;;;;;5117416;28;20795;-59
2020/12/24 07:51:33;;;;;;;0.85;0.20;;;8.20;99.90;;;;;;5117129;28;20477;-59
2020/12/24 07:54:12;;;;;;;0.40;0.20;;;8.30;99.90;;;;;;5117183;28;20435;-60
2020/12/24 07:56:44;;;;;;;0.73;0.10;;;8.30;99.90;;;;;;5116492;28;20719;-60
2020/12/24 07:59:12;;;;;;;0.90;0.20;;;8.40;99.90;;;;;;5115651;28;20424;-60
2020/12/24 08:01:39;;;;;;;0.93;0.20;;;8.50;99.90;;;;;;5115637;28;20420;-60
2020/12/24 08:04:06;;;;;;;0.60;0.20;;;8.60;99.90;;;;;;5116383;28;20424;-59
2020/12/24 08:06:34;;;;;;;0.30;0.10;;;8.70;99.90;;;;;;5116496;28;20874;-59
2020/12/24 08:09:12;;;;;;;0.40;0.10;;;8.70;99.90;;;;;;5114648;28;20427;-58
2020/12/24 08:11:40;;;;;;;0.50;0.20;;;8.70;99.90;;;;;;5115903;28;20480;-59
2020/12/24 08:14:07;;;;;;;1.55;0.15;;;8.80;99.90;;;;;;5109122;28;20416;-59
2020/12/24 08:16:38;;;;;;;1.40;0.10;;;8.80;99.90;;;;;;5075051;28;20430;-59
2020/12/24 08:19:15;;;;;;;1.00;0.20;;;8.80;99.90;;;;;;5075519;28;20427;-59
2020/12/24 08:21:53;;;;;;;0.87;0.20;;;8.80;99.90;;;;;;5075508;28;20489;-59
2020/12/24 08:24:22;;;;;;;0.90;0.20;;;9.00;99.90;;;;;;5075940;28;20770;-59
2020/12/24 08:26:50;;;;;;;0.75;0.10;;;8.90;99.90;;;;;;5075604;28;20723;-59
2020/12/24 08:29:18;;;;;;;0.88;0.20;;;8.90;99.90;;;;;;5075395;28;20423;-59
2020/12/24 08:31:47;;;;;;;0.65;0.20;;;8.80;99.90;;;;;;5072653;28;21307;-59
2020/12/24 08:34:14;;;;;;;0.68;0.17;;;8.90;99.90;;;;;;5073303;28;20884;-59
2020/12/24 08:36:45;;;;;;;0.40;0.10;;;8.90;99.90;;;;;;5073870;28;20435;-60
2020/12/24 08:39:14;;;;;;;1.10;0.10;;;8.70;99.90;;;;;;5073670;28;20903;-60
2020/12/24 08:41:44;;;;;;;0.40;0.10;;;8.70;99.90;;;;;;5042671;28;20850;-61
2020/12/24 08:44:16;;;;;;;0.40;0.10;;;8.70;99.90;;;;;;5040074;28;20429;-63
2020/12/24 08:46:43;;;;;;;0.40;0.10;;;8.60;99.90;;;;;;5052702;28;20436;-61
2020/12/24 08:49:22;;;;;;;0.40;0.10;;;8.60;99.90;;;;;;5051092;28;20479;-60
2020/12/24 08:52:08;;;;;;;0.50;0.10;;;8.60;99.90;;;;;;5054429;28;20848;-59
2020/12/24 08:54:35;;;;;;;0.35;0.10;;;8.70;99.90;;;;;;5054137;28;20444;-59
2020/12/24 08:57:05;;;;;;;0.40;0.10;;;8.70;99.90;;;;;;5053028;28;20447;-61
2020/12/24 08:59:32;;;;;;;0.40;0.10;;;8.80;99.90;;;;;;5049919;28;20434;-60
2020/12/24 09:02:00;;;;;;;0.50;0.20;;;9.00;99.90;;;;;;5051272;28;20433;-60
2020/12/24 09:04:26;;;;;;;0.60;0.20;;;8.90;99.90;;;;;;5049428;28;20692;-57
2020/12/24 09:06:53;;;;;;;0.40;0.10;;;8.80;99.90;;;;;;5051469;28;20425;-62
2020/12/24 09:09:22;;;;;;;0.40;0.10;;;8.80;99.90;;;;;;5052677;28;20790;-61
2020/12/24 09:11:49;;;;;;;0.50;0.20;;;8.80;99.90;;;;;;5050943;28;20433;-59
2020/12/24 09:14:19;;;;;;;1.10;0.10;;;8.90;99.90;;;;;;5051952;28;20504;-59
2020/12/24 09:17:01;;;;;;;0.68;0.10;;;8.90;99.90;;;;;;5042999;28;20435;-59
2020/12/24 09:19:28;;;;;;;0.30;0.10;;;8.90;99.90;;;;;;5034897;28;20843;-59
2020/12/24 09:21:57;;;;;;;0.30;0.10;;;8.90;99.90;;;;;;5034312;28;20439;-58
2020/12/24 09:24:24;;;;;;;1.20;0.10;;;8.80;99.90;;;;;;5034466;28;20734;-59
2020/12/24 09:26:53;;;;;;;0.30;0.20;;;8.70;99.90;;;;;;5034320;28;20431;-60
2020/12/24 09:29:23;;;;;;;0.30;0.10;;;8.80;99.90;;;;;;5034057;28;20423;-60
2020/12/24 09:31:58;;;;;;;0.30;0.10;;;8.90;99.90;;;;;;5034101;28;20843;-60
2020/12/24 09:34:25;;;;;;;0.30;0.10;;;9.00;99.90;;;;;;5031551;28;20422;-60
2020/12/24 09:36:52;;;;;;;0.40;0.10;;;9.10;99.90;;;;;;5029667;28;20543;-60
2020/12/24 09:39:19;;;;;;;0.30;0.10;;;9.10;99.90;;;;;;5032376;28;20430;-60
2020/12/24 09:41:48;;;;;;;1.00;0.20;;;9.10;99.90;;;;;;5031534;28;20494;-59
2020/12/24 09:44:15;;;;;;;0.40;0.10;;;9.00;99.90;;;;;;5032025;28;20847;-59
2020/12/24 09:46:43;;;;;;;1.00;0.10;;;9.00;99.90;;;;;;5032351;28;20508;-59
2020/12/24 09:49:10;;;;;;;0.30;0.10;;;8.90;99.90;;;;;;5032288;28;20427;-60
2020/12/24 09:51:37;;;;;;;0.32;0.10;;;9.00;99.90;;;;;;5033051;28;20425;-61
2020/12/24 09:54:05;;;;;;;0.60;0.20;;;9.30;99.90;;;;;;5034180;28;20839;-60
2020/12/24 09:56:32;;;;;;;0.40;0.10;;;9.30;99.90;;;;;;5033129;28;20686;-60
2020/12/24 09:58:59;;;;;;;0.30;0.10;;;9.20;99.90;;;;;;5033466;28;20892;-60
2020/12/24 10:01:26;;;;;;;0.40;0.20;;;9.20;99.90;;;;;;5033676;28;20438;-60
2020/12/24 10:03:54;;;;;;;0.40;0.20;;;9.10;99.90;;;;;;5033660;28;20820;-60
2020/12/24 10:06:22;;;;;;;0.37;0.10;;;9.60;99.90;;;;;;5034476;28;20431;-59
2020/12/24 10:08:48;;;;;;;0.40;0.10;;;9.50;99.90;;;;;;5031644;28;20599;-59
2020/12/24 10:11:16;;;;;;;0.30;0.10;;;9.50;99.90;;;;;;5032308;28;20477;-59
2020/12/24 10:13:43;;;;;;;0.45;0.17;;;9.30;99.90;;;;;;5033924;28;20723;-60
2020/12/24 10:16:10;;;;;;;0.30;0.10;;;9.50;99.90;;;;;;5033714;28;20438;-61
2020/12/24 10:18:37;;;;;;;0.40;0.10;;;9.50;99.90;;;;;;5033459;28;20473;-60
2020/12/24 10:21:05;;;;;;;0.30;0.10;;;9.50;99.90;;;;;;5033530;28;20431;-60
2020/12/24 10:23:32;;;;;;;0.30;0.10;;;9.50;99.90;;;;;;5033266;28;20479;-60
2020/12/24 10:25:59;;;;;;;0.50;0.10;;;9.70;99.90;;;;;;5033676;28;20457;-61
2020/12/24 10:28:26;;;;;;;0.50;0.10;;;9.90;99.90;;;;;;5032906;28;20427;-61
2020/12/24 10:30:53;;;;;;;0.45;0.10;;;9.90;99.90;;;;;;5031174;28;20525;-60
2020/12/24 10:33:20;;;;;;;0.60;0.10;;;9.90;99.90;;;;;;5043640;28;20429;-60
2020/12/24 10:35:46;;;;;;;0.30;0.10;;;10.00;99.90;;;;;;5052610;28;20440;-61
2020/12/24 10:38:14;;;;;;;0.40;0.10;;;10.10;99.90;;;;;;5052387;28;20429;-60
2020/12/24 10:40:41;;;;;;;0.30;0.10;;;9.90;99.90;;;;;;5051436;28;20882;-61
2020/12/24 10:43:08;;;;;;;0.30;0.10;;;9.70;99.90;;;;;;5052019;28;20421;-61
2020/12/24 10:45:35;;;;;;;0.30;0.10;;;9.70;99.90;;;;;;5054075;28;20436;-60
2020/12/24 10:48:02;;;;;;;0.40;0.20;;;9.80;99.90;;;;;;5056766;28;20421;-61
2020/12/24 10:50:29;;;;;;;0.50;0.10;;;10.00;99.90;;;;;;5055611;28;20437;-61
2020/12/24 10:52:56;;;;;;;0.80;0.20;;;10.00;99.90;;;;;;5056977;28;20487;-61
2020/12/24 10:55:24;;;;;;;0.40;0.10;;;9.90;99.90;;;;;;5054542;28;20437;-61
2020/12/24 10:57:50;;;;;;;0.30;0.10;;;9.80;99.90;;;;;;5053860;28;20437;-61
2020/12/24 11:00:17;;;;;;;0.30;0.10;;;9.90;99.90;;;;;;5054425;28;20871;-61
2020/12/24 11:02:45;;;;;;;0.40;0.10;;;10.00;99.90;;;;;;5055448;28;21048;-63
2020/12/24 11:05:11;;;;;;;0.50;0.10;;;10.20;99.90;;;;;;5055691;28;20775;-62
2020/12/24 11:07:38;;;;;;;0.40;0.10;;;10.10;99.90;;;;;;5053702;28;20425;-63
2020/12/24 11:10:05;;;;;;;1.20;0.10;;;9.80;99.90;;;;;;5048294;28;21148;-60
2020/12/24 11:12:33;;;;;;;0.60;0.10;;;9.60;99.90;;;;;;5036002;28;20726;-61
2020/12/24 11:15:00;;;;;;;0.30;0.10;;;9.60;99.90;;;;;;5035209;28;20423;-61
2020/12/24 11:17:27;;;;;;;0.30;0.10;;;9.70;99.90;;;;;;5036440;28;20430;-61
2020/12/24 11:19:54;;;;;;;0.30;0.10;;;9.80;99.90;;;;;;5034660;28;20434;-62
2020/12/24 11:22:21;;;;;;;0.50;0.10;;;9.60;99.90;;;;;;5047261;28;20433;-62
2020/12/24 11:24:48;;;;;;;0.50;0.10;;;9.80;99.90;;;;;;5053415;28;20782;-62
2020/12/24 11:27:14;;;;;;;0.30;0.10;;;9.60;99.90;;;;;;5053330;28;20422;-62
2020/12/24 11:29:42;;;;;;;0.30;0.10;;;9.70;99.90;;;;;;5053225;28;20420;-62
2020/12/24 11:32:09;;;;;;;0.32;0.10;;;9.70;99.90;;;;;;5051632;28;20433;-62
2020/12/24 11:34:36;;;;;;;0.40;0.10;;;9.70;99.90;;;;;;5051748;28;20455;-62
2020/12/24 11:37:03;;;;;;;0.30;0.10;;;9.70;99.90;;;;;;5051201;28;20433;-62
2020/12/24 11:39:30;;;;;;;0.30;0.10;;;9.80;99.90;;;;;;5054191;28;20824;-62
2020/12/24 11:41:57;;;;;;;0.30;0.10;;;9.80;99.90;;;;;;5054534;28;20437;-62
2020/12/24 11:44:24;;;;;;;0.80;0.10;;;9.80;99.90;;;;;;5053137;28;20470;-62
2020/12/24 11:46:51;;;;;;;0.30;0.10;;;9.70;99.90;;;;;;5054626;28;20791;-62
2020/12/24 11:49:18;;;;;;;0.32;0.10;;;9.60;99.90;;;;;;5054116;28;20429;-63
2020/12/24 11:51:45;;;;;;;0.30;0.10;;;9.80;99.90;;;;;;5054028;28;20829;-63
2020/12/24 11:54:12;;;;;;;0.40;0.10;;;9.80;99.90;;;;;;5052457;28;20741;-64
2020/12/24 11:56:39;;;;;;;0.30;0.10;;;9.70;99.90;;;;;;5055456;28;20436;-65
2020/12/24 11:59:06;;;;;;;0.30;0.10;;;9.70;99.90;;;;;;5054459;28;20440;-64
2020/12/24 12:01:33;;;;;;;1.40;0.53;;;9.90;99.90;;;;;;5054360;28;20437;-64
2020/12/24 12:04:01;;;;;;;0.50;0.20;;;9.80;99.90;;;;;;5054240;28;20421;-64
2020/12/24 12:06:28;;;;;;;0.30;0.10;;;9.70;99.90;;;;;;5054257;28;20520;-65
2020/12/24 12:08:54;;;;;;;0.40;0.10;;;9.80;99.90;;;;;;5052322;28;20476;-63
2020/12/24 12:11:21;;;;;;;0.40;0.10;;;9.70;99.90;;;;;;5052928;28;20433;-66
2020/12/24 12:13:50;;;;;;;0.30;0.10;;;9.90;99.90;;;;;;5055251;28;20832;-64
2020/12/24 12:16:23;;;;;;;0.30;0.10;;;9.90;99.90;;;;;;5053858;28;20429;-64
2020/12/24 12:18:49;;;;;;;0.60;0.10;;;9.80;99.90;;;;;;5054115;28;20417;-64
2020/12/24 12:21:18;;;;;;;0.30;0.10;;;9.80;99.90;;;;;;5054983;28;20481;-65
2020/12/24 12:23:46;;;;;;;0.40;0.10;;;9.90;99.90;;;;;;5054404;28;20425;-64
2020/12/24 12:26:15;;;;;;;0.50;0.10;;;9.90;99.90;;;;;;5054662;28;20429;-65
2020/12/24 12:28:46;;;;;;;0.60;0.10;;;9.90;99.90;;;;;;5054248;28;20452;-66
2020/12/24 12:31:17;;;;;;;0.30;0.10;;;9.90;99.90;;;;;;5053402;28;20482;-65
2020/12/24 12:33:44;;;;;;;0.30;0.10;;;9.80;99.90;;;;;;5053895;28;20429;-65
2020/12/24 12:36:11;;;;;;;0.85;0.10;;;9.70;99.90;;;;;;5054762;28;20434;-66
2020/12/24 12:38:39;;;;;;;0.30;0.10;;;9.80;99.90;;;;;;5054189;28;20495;-65
2020/12/24 12:41:06;;;;;;;0.30;0.10;;;9.80;99.90;;;;;;5054137;28;20425;-62
2020/12/24 12:43:33;;;;;;;0.50;0.10;;;9.90;99.90;;;;;;5054086;28;20490;-61
2020/12/24 12:45:59;;;;;;;0.50;0.10;;;9.90;99.90;;;;;;5053953;28;20450;-63
2020/12/24 12:48:26;;;;;;;0.35;0.10;;;9.80;99.90;;;;;;5048484;28;20772;-63
2020/12/24 12:50:53;;;;;;;0.35;0.10;;;9.80;99.90;;;;;;5049293;28;20433;-63
2020/12/24 12:53:20;;;;;;;0.30;0.10;;;9.80;99.90;;;;;;5051082;28;20433;-63
2020/12/24 12:55:48;;;;;;;0.40;0.10;;;9.80;99.90;;;;;;5052675;28;20417;-63
2020/12/24 12:58:15;;;;;;;0.30;0.10;;;9.80;99.90;;;;;;5053006;28;20437;-65
2020/12/24 13:00:41;;;;;;;0.40;0.10;;;9.70;99.90;;;;;;5053309;28;20432;-64
2020/12/24 13:03:08;;;;;;;0.30;0.10;;;9.60;99.90;;;;;;5052418;28;20922;-64